Terminal Aerodrome Forecast
Issued by NWS

Home | Current Version | Previous Version | Text Only | Print | Product List | Glossary Off
Versions: 1 2 3 4 5 6 7 8 9 10 11 12 13 14

000
FTUS43 KGRB 021100
TAFATW
TAF
KATW 021131Z 0212/0312 19005KT P6SM BKN060 BKN100
     FM021500 22011KT P6SM SCT060 SCT100
     FM030100 19006KT P6SM SCT100 SCT250=

USA.gov is the U.S. government's official web portal to all federal, state and local government web resources and services.